Time;durP1;ratioP1;P1;durP2;ratioP2;P2;SDS_P1;SDS_P2;PMS_P1;PMS_P2;Temp;Humidity;BMP_temperature;BMP_pressure;BME280_temperature;BME280_humidity;BME280_pressure;Samples;Min_cycle;Max_cycle;Signal;HPM_P1;HPM_P2
2023/03/08 00:00:14;;;;;;;2.38;2.17;;;-0.40;99.90;;;;;;4943233;28;89878;-29
2023/03/08 00:02:39;;;;;;;3.25;2.92;;;-0.40;99.90;;;;;;4920504;28;89771;-29
2023/03/08 00:05:06;;;;;;;2.85;2.45;;;-0.40;99.90;;;;;;4937200;28;89922;-33
2023/03/08 00:07:32;;;;;;;2.63;2.33;;;-0.40;99.90;;;;;;4929722;28;92182;-28
2023/03/08 00:09:57;;;;;;;3.42;1.80;;;-0.40;99.90;;;;;;4936984;28;88443;-27
2023/03/08 00:12:23;;;;;;;3.30;2.75;;;-0.40;99.90;;;;;;4911460;28;90057;-28
2023/03/08 00:14:49;;;;;;;2.85;2.10;;;-0.40;99.90;;;;;;4920014;28;90504;-29
2023/03/08 00:17:15;;;;;;;2.88;2.30;;;-0.40;99.90;;;;;;4945259;28;89810;-32
2023/03/08 00:19:41;;;;;;;2.67;2.47;;;-0.40;99.90;;;;;;4921721;28;88345;-27
2023/03/08 00:22:07;;;;;;;5.32;2.17;;;-0.40;99.90;;;;;;4944684;28;87623;-30
2023/03/08 00:24:34;;;;;;;4.18;2.65;;;-0.40;99.90;;;;;;4922603;28;90716;-29
2023/03/08 00:26:59;;;;;;;3.13;2.83;;;-0.40;99.90;;;;;;4920052;28;89429;-29
2023/03/08 00:29:25;;;;;;;2.95;2.65;;;-0.40;99.90;;;;;;4920409;28;88249;-28
2023/03/08 00:31:51;;;;;;;4.00;3.63;;;-0.40;99.90;;;;;;4921326;28;89930;-29
2023/03/08 00:34:16;;;;;;;2.67;2.17;;;-0.40;99.90;;;;;;4920295;28;90134;-30
2023/03/08 00:36:42;;;;;;;3.92;2.78;;;-0.40;99.90;;;;;;4923918;28;89569;-29
2023/03/08 00:39:10;;;;;;;3.50;2.90;;;-0.40;99.90;;;;;;4928975;28;87710;-31
2023/03/08 00:41:35;;;;;;;3.08;2.78;;;-0.50;99.90;;;;;;4920214;28;87582;-31
2023/03/08 00:44:01;;;;;;;5.22;4.20;;;-0.50;99.90;;;;;;4931207;28;90497;-30
2023/03/08 00:46:27;;;;;;;4.75;3.55;;;-0.50;99.90;;;;;;4923009;28;90106;-28
2023/03/08 00:48:52;;;;;;;4.38;3.67;;;-0.50;99.90;;;;;;4923616;28;88283;-31
2023/03/08 00:51:20;;;;;;;3.25;3.03;;;-0.50;99.90;;;;;;4956349;28;89680;-29
2023/03/08 00:53:46;;;;;;;5.82;4.53;;;-0.50;99.90;;;;;;4941033;28;90124;-28
2023/03/08 00:56:12;;;;;;;5.13;3.00;;;-0.50;99.90;;;;;;4936744;28;89284;-28
2023/03/08 00:58:41;;;;;;;3.92;3.63;;;-0.50;99.90;;;;;;4924220;28;90313;-30
2023/03/08 01:01:07;;;;;;;;;;;-0.50;99.90;;;;;;4923033;28;88271;-32
2023/03/08 01:03:33;;;;;;;5.70;3.88;;;-0.50;99.90;;;;;;4942888;28;90415;-32
2023/03/08 01:06:06;;;;;;;4.00;3.70;;;-0.60;99.90;;;;;;4930808;28;89224;-29
2023/03/08 01:08:32;;;;;;;4.18;3.88;;;-0.60;99.90;;;;;;4924360;28;88731;-28
2023/03/08 01:10:59;;;;;;;3.88;3.53;;;-0.60;99.90;;;;;;4923593;28;89792;-29
2023/03/08 01:13:26;;;;;;;4.93;4.10;;;-0.60;99.90;;;;;;4922964;28;89905;-31
2023/03/08 01:15:52;;;;;;;5.60;3.73;;;-0.60;99.90;;;;;;4923356;28;89049;-30
2023/03/08 01:18:18;;;;;;;5.07;3.85;;;-0.60;99.90;;;;;;4923894;28;89021;-30
2023/03/08 01:20:43;;;;;;;4.32;3.92;;;-0.60;99.90;;;;;;4922311;28;88119;-32
2023/03/08 01:23:10;;;;;;;5.38;3.63;;;-0.60;99.90;;;;;;4923306;28;89985;-31
2023/03/08 01:25:36;;;;;;;5.70;3.92;;;-0.60;99.90;;;;;;4947876;28;89070;-30
2023/03/08 01:28:02;;;;;;;6.18;3.70;;;-0.60;99.90;;;;;;4922804;28;89575;-30
2023/03/08 01:30:28;;;;;;;5.05;3.97;;;-0.60;99.90;;;;;;4932349;28;89247;-29
2023/03/08 01:32:53;;;;;;;5.18;4.68;;;-0.70;99.90;;;;;;4938820;28;89924;-29
2023/03/08 01:35:19;;;;;;;5.55;3.90;;;-0.70;99.90;;;;;;4927550;28;89486;-27
2023/03/08 01:37:44;;;;;;;8.13;5.20;;;-0.70;99.90;;;;;;4942969;28;88705;-28
2023/03/08 01:40:13;;;;;;;7.10;5.50;;;-0.70;99.90;;;;;;4924343;28;89144;-32
2023/03/08 01:42:39;;;;;;;5.65;4.93;;;-0.70;99.90;;;;;;4923039;28;90144;-29
2023/03/08 01:45:26;;;;;;;5.82;4.03;;;-0.70;99.90;;;;;;4922494;28;90035;-31
2023/03/08 01:47:51;;;;;;;8.10;4.90;;;-0.70;99.90;;;;;;4932278;28;90229;-29
2023/03/08 01:50:18;;;;;;;10.43;5.72;;;-0.70;99.90;;;;;;4935239;28;89265;-33
2023/03/08 01:52:51;;;;;;;4.40;4.10;;;-0.70;99.90;;;;;;4934913;28;90199;-29
2023/03/08 01:55:18;;;;;;;6.97;4.57;;;-0.70;99.90;;;;;;4923496;28;90248;-30
2023/03/08 01:57:50;;;;;;;7.22;5.50;;;-0.70;99.90;;;;;;4935647;28;88707;-29
2023/03/08 02:00:21;;;;;;;4.90;4.50;;;-0.80;99.90;;;;;;4925609;28;88714;-29
2023/03/08 02:02:54;;;;;;;8.00;5.40;;;-0.70;99.90;;;;;;4943459;28;89654;-30
2023/03/08 02:05:21;;;;;;;5.35;4.40;;;-0.80;99.90;;;;;;4934349;28;89851;-30
2023/03/08 02:07:46;;;;;;;6.25;5.35;;;-0.80;99.90;;;;;;4922355;28;88424;-29
2023/03/08 02:10:13;;;;;;;7.13;5.00;;;-0.80;99.90;;;;;;4922907;28;89698;-29
2023/03/08 02:12:39;;;;;;;7.20;6.07;;;-0.80;99.90;;;;;;4917777;28;92270;-30
2023/03/08 02:15:08;;;;;;;6.63;4.95;;;-0.80;99.90;;;;;;4921452;28;89776;-31
2023/03/08 02:17:39;;;;;;;7.90;7.10;;;-0.80;99.90;;;;;;4929528;28;89936;-33
2023/03/08 02:20:14;;;;;;;7.97;6.30;;;-0.70;99.90;;;;;;4928932;28;88942;-31
2023/03/08 02:22:41;;;;;;;6.85;6.10;;;-0.80;99.90;;;;;;4933300;28;88938;-28
2023/03/08 02:25:15;;;;;;;7.03;5.32;;;-0.80;99.90;;;;;;4922183;28;90546;-30
2023/03/08 02:27:40;;;;;;;9.45;6.10;;;-0.80;99.90;;;;;;4922585;28;88325;-29
2023/03/08 02:30:07;;;;;;;7.72;5.63;;;-0.80;99.90;;;;;;4921783;28;87699;-29
2023/03/08 02:32:33;;;;;;;6.22;5.63;;;-0.80;99.90;;;;;;4936664;28;89080;-29
2023/03/08 02:34:59;;;;;;;8.43;6.13;;;-0.80;99.90;;;;;;4932490;28;89653;-29
2023/03/08 02:37:24;;;;;;;8.38;6.60;;;-0.80;99.90;;;;;;4930785;28;87561;-31
2023/03/08 02:39:50;;;;;;;9.63;7.22;;;-0.80;99.90;;;;;;4926133;28;90363;-29
2023/03/08 02:42:16;;;;;;;8.93;6.88;;;-0.80;99.90;;;;;;4922064;28;90473;-29
2023/03/08 02:44:41;;;;;;;7.50;6.15;;;-0.90;99.90;;;;;;4921463;28;88586;-28
2023/03/08 02:47:07;;;;;;;7.45;6.13;;;-0.90;99.90;;;;;;4922336;28;88554;-28
2023/03/08 02:49:33;;;;;;;7.93;6.53;;;-0.80;99.90;;;;;;4922166;28;89320;-30
2023/03/08 02:51:58;;;;;;;6.93;6.20;;;-0.90;99.90;;;;;;4922621;28;90348;-27
2023/03/08 02:54:24;;;;;;;8.07;7.28;;;-0.90;99.90;;;;;;4922896;28;90089;-29
2023/03/08 02:56:49;;;;;;;9.10;8.23;;;-0.90;99.90;;;;;;4943459;28;89704;-32
2023/03/08 02:59:15;;;;;;;7.53;6.80;;;-0.80;99.90;;;;;;4943346;28;89416;-30
2023/03/08 03:01:41;;;;;;;7.32;6.55;;;-0.90;99.90;;;;;;4920953;28;90400;-31
2023/03/08 03:04:06;;;;;;;8.05;6.50;;;-0.90;99.90;;;;;;4921738;28;89712;-28
2023/03/08 03:06:32;;;;;;;9.15;7.53;;;-0.90;99.90;;;;;;4921413;28;90919;-27
2023/03/08 03:08:58;;;;;;;8.15;6.13;;;-0.90;99.90;;;;;;4921505;28;88961;-31
2023/03/08 03:11:23;;;;;;;10.00;7.35;;;-0.90;99.90;;;;;;4933699;28;90651;-27
2023/03/08 03:13:57;;;;;;;10.45;7.82;;;-0.90;99.90;;;;;;4921466;28;90365;-31
2023/03/08 03:16:23;;;;;;;10.98;7.88;;;-0.90;99.90;;;;;;4920908;28;89003;-29
2023/03/08 03:18:50;;;;;;;10.63;9.38;;;-0.90;99.90;;;;;;4921472;28;89877;-31
2023/03/08 03:21:15;;;;;;;10.10;9.07;;;-0.90;99.90;;;;;;4920915;28;89910;-32
2023/03/08 03:23:41;;;;;;;10.43;7.88;;;-0.90;99.90;;;;;;4931780;28;89552;-31
2023/03/08 03:26:09;;;;;;;14.88;9.10;;;-0.90;99.90;;;;;;4924063;28;89501;-29
2023/03/08 03:28:35;;;;;;;9.60;8.05;;;-0.90;99.90;;;;;;4922533;28;88985;-29
2023/03/08 03:31:01;;;;;;;12.18;8.45;;;-0.90;99.90;;;;;;4918904;28;89816;-35
2023/03/08 03:33:27;;;;;;;11.82;9.25;;;-0.90;99.90;;;;;;4922318;28;90722;-28
2023/03/08 03:35:53;;;;;;;14.45;9.73;;;-0.90;99.90;;;;;;4922027;28;89970;-32
2023/03/08 03:38:18;;;;;;;14.60;10.18;;;-0.90;99.90;;;;;;4934343;28;89356;-33
2023/03/08 03:40:44;;;;;;;9.55;8.23;;;-0.90;99.90;;;;;;4920934;28;90233;-28
2023/03/08 03:43:09;;;;;;;12.05;9.20;;;-0.90;99.90;;;;;;4920084;28;89535;-28
2023/03/08 03:45:35;;;;;;;10.75;9.23;;;-1.00;99.90;;;;;;4921383;28;89021;-31
2023/03/08 03:48:01;;;;;;;12.60;10.73;;;-1.00;99.90;;;;;;4921019;28;88463;-30
2023/03/08 03:50:26;;;;;;;11.98;8.95;;;-0.90;99.90;;;;;;4920563;28;90699;-33
2023/03/08 03:52:52;;;;;;;11.13;10.02;;;-1.00;99.90;;;;;;4920808;28;90160;-31
2023/03/08 03:55:17;;;;;;;11.48;8.98;;;-1.00;99.90;;;;;;4921826;28;89981;-31
2023/03/08 03:57:43;;;;;;;9.95;8.98;;;-1.00;99.90;;;;;;4930976;28;89965;-29
2023/03/08 04:00:09;;;;;;;10.43;8.38;;;-1.00;99.90;;;;;;4923364;28;90040;-32
2023/03/08 04:02:35;;;;;;;10.05;8.70;;;-1.00;99.90;;;;;;4922927;28;89806;-30
2023/03/08 04:05:01;;;;;;;12.90;10.40;;;-1.00;99.90;;;;;;4926247;28;88309;-31
2023/03/08 04:07:26;;;;;;;12.43;9.43;;;-1.00;99.90;;;;;;4920150;28;89626;-28
2023/03/08 04:09:52;;;;;;;9.25;8.32;;;-1.00;99.90;;;;;;4921725;28;89965;-27
2023/03/08 04:12:17;;;;;;;11.85;9.77;;;-1.00;99.90;;;;;;4920383;28;89556;-30
2023/03/08 04:14:43;;;;;;;11.45;8.93;;;-1.00;99.90;;;;;;4921417;28;87840;-31
2023/03/08 04:17:09;;;;;;;10.90;9.35;;;-1.00;99.90;;;;;;4920630;28;88765;-30
2023/03/08 04:19:34;;;;;;;14.90;11.15;;;-1.10;99.90;;;;;;4921117;28;89811;-27
2023/03/08 04:22:00;;;;;;;14.88;9.85;;;-1.10;99.90;;;;;;4921638;28;90033;-29
2023/03/08 04:24:26;;;;;;;17.60;11.93;;;-1.10;99.90;;;;;;4924733;28;88105;-28
2023/03/08 04:26:51;;;;;;;11.00;9.85;;;-1.10;99.90;;;;;;4924016;28;89255;-30
2023/03/08 04:29:17;;;;;;;14.00;9.98;;;-1.10;99.90;;;;;;4923411;28;90996;-30
2023/03/08 04:31:42;;;;;;;10.80;9.70;;;-1.10;99.90;;;;;;4923558;28;90301;-28
2023/03/08 04:34:08;;;;;;;11.63;8.77;;;-1.10;99.90;;;;;;4923785;28;88910;-31
2023/03/08 04:36:35;;;;;;;11.88;9.82;;;-1.10;99.90;;;;;;4909637;28;87981;-28
2023/03/08 04:39:01;;;;;;;15.52;10.48;;;-1.20;99.90;;;;;;4935548;28;90339;-33
2023/03/08 04:41:26;;;;;;;15.23;11.40;;;-1.20;99.90;;;;;;4922426;28;90012;-29
2023/03/08 04:43:54;;;;;;;15.10;10.40;;;-1.20;99.90;;;;;;4923334;28;88440;-28
2023/03/08 04:46:23;;;;;;;12.85;10.88;;;-1.20;99.90;;;;;;4922584;28;89463;-27
2023/03/08 04:48:51;;;;;;;15.63;11.35;;;-1.20;99.90;;;;;;4922398;28;89120;-30
2023/03/08 04:51:17;;;;;;;12.63;10.63;;;-1.20;99.90;;;;;;4922493;28;88957;-30
2023/03/08 04:53:44;;;;;;;12.60;11.27;;;-1.20;99.90;;;;;;4933455;28;88802;-28
2023/03/08 04:56:11;;;;;;;12.50;10.57;;;-1.30;99.90;;;;;;4934986;28;89423;-30
2023/03/08 04:58:37;;;;;;;14.75;10.68;;;-1.30;99.90;;;;;;4925346;28;89290;-29
2023/03/08 05:01:16;;;;;;;14.20;11.48;;;-1.30;99.90;;;;;;4922847;28;89720;-30
2023/03/08 05:03:42;;;;;;;15.00;9.77;;;-1.30;99.90;;;;;;4922653;28;88078;-29
2023/03/08 05:06:09;;;;;;;12.95;10.45;;;-1.30;99.90;;;;;;4923773;28;89345;-29
2023/03/08 05:08:35;;;;;;;12.18;9.38;;;-1.30;99.90;;;;;;4922033;28;89634;-30
2023/03/08 05:11:03;;;;;;;12.20;9.93;;;-1.30;99.90;;;;;;4923380;28;89603;-31
2023/03/08 05:13:34;;;;;;;13.52;10.45;;;-1.30;99.90;;;;;;4923637;28;88599;-29
2023/03/08 05:16:02;;;;;;;12.40;11.10;;;-1.30;99.90;;;;;;4923082;28;89984;-34
2023/03/08 05:18:27;;;;;;;12.95;10.38;;;-1.30;99.90;;;;;;4922368;28;92117;-30
2023/03/08 05:20:54;;;;;;;14.38;10.75;;;-1.30;99.90;;;;;;4922367;28;90051;-32
2023/03/08 05:23:20;;;;;;;13.98;11.18;;;-1.30;99.90;;;;;;4942057;28;89465;-30
2023/03/08 05:25:46;;;;;;;13.52;11.27;;;-1.30;99.90;;;;;;4927938;28;89491;-29
2023/03/08 05:28:14;;;;;;;13.23;9.98;;;-1.30;99.90;;;;;;4922592;28;90403;-28
2023/03/08 05:30:41;;;;;;;14.73;11.73;;;-1.40;99.90;;;;;;4921864;28;89383;-33
2023/03/08 05:33:07;;;;;;;14.43;11.98;;;-1.40;99.90;;;;;;4938993;28;88266;-30
2023/03/08 05:35:32;;;;;;;14.23;9.95;;;-1.40;99.90;;;;;;4930829;28;90467;-29
2023/03/08 05:37:58;;;;;;;11.07;9.90;;;-1.40;99.90;;;;;;4936536;28;90295;-28
2023/03/08 05:40:23;;;;;;;12.18;10.85;;;-1.40;99.90;;;;;;4922535;28;89584;-28
2023/03/08 05:42:49;;;;;;;12.82;11.70;;;-1.40;99.90;;;;;;4921942;28;87801;-30
2023/03/08 05:45:15;;;;;;;15.25;10.68;;;-1.40;99.90;;;;;;4922923;28;89713;-29
2023/03/08 05:47:40;;;;;;;11.50;9.65;;;-1.40;99.90;;;;;;4921041;28;90482;-29
2023/03/08 05:50:06;;;;;;;12.25;10.70;;;-1.40;99.90;;;;;;4923391;28;90918;-29
2023/03/08 05:52:32;;;;;;;13.25;10.05;;;-1.40;99.90;;;;;;4922047;28;89209;-29
2023/03/08 05:54:58;;;;;;;15.02;10.38;;;-1.40;99.90;;;;;;4934706;28;88095;-31
2023/03/08 05:57:23;;;;;;;14.80;10.65;;;-1.40;99.90;;;;;;4934263;28;90236;-31
2023/03/08 05:59:49;;;;;;;22.08;11.00;;;-1.40;99.90;;;;;;4921611;28;88859;-33
2023/03/08 06:02:14;;;;;;;12.68;10.68;;;-1.40;99.90;;;;;;4921972;28;88976;-28
2023/03/08 06:04:40;;;;;;;14.23;10.05;;;-1.50;99.90;;;;;;4922117;28;88425;-29
2023/03/08 06:07:06;;;;;;;12.60;10.55;;;-1.40;99.90;;;;;;4921731;28;90220;-31
2023/03/08 06:09:31;;;;;;;12.35;10.23;;;-1.40;99.90;;;;;;4922002;28;89968;-31
2023/03/08 06:11:57;;;;;;;12.07;10.68;;;-1.50;99.90;;;;;;4922222;28;89194;-30
2023/03/08 06:14:22;;;;;;;11.50;10.30;;;-1.50;99.90;;;;;;4921583;28;88477;-29
2023/03/08 06:16:48;;;;;;;18.33;11.43;;;-1.40;99.90;;;;;;4935134;28;90335;-31
2023/03/08 06:19:14;;;;;;;14.43;10.98;;;-1.40;99.90;;;;;;4933223;28;90068;-29
2023/03/08 06:21:40;;;;;;;12.05;10.20;;;-1.40;99.90;;;;;;4921034;28;88007;-31
2023/03/08 06:24:05;;;;;;;11.73;10.52;;;-1.50;99.90;;;;;;4921788;28;90196;-30
2023/03/08 06:26:31;;;;;;;12.75;11.10;;;-1.40;99.90;;;;;;4921801;28;90330;-30
2023/03/08 06:28:57;;;;;;;11.40;9.60;;;-1.40;99.90;;;;;;4921037;28;89443;-31
2023/03/08 06:31:22;;;;;;;15.07;9.88;;;-1.40;99.90;;;;;;4922632;28;88778;-29
2023/03/08 06:33:48;;;;;;;12.65;11.50;;;-1.40;99.90;;;;;;4922186;28;89919;-27
2023/03/08 06:36:17;;;;;;;11.05;9.93;;;-1.50;99.90;;;;;;4921190;28;91424;-27
2023/03/08 06:38:43;;;;;;;15.90;12.30;;;-1.50;99.90;;;;;;4935521;28;89881;-28
2023/03/08 06:41:09;;;;;;;10.80;9.75;;;-1.50;99.90;;;;;;4920403;28;88633;-32
2023/03/08 06:43:35;;;;;;;12.52;11.23;;;-1.50;99.90;;;;;;4922002;28;89217;-30
2023/03/08 06:46:09;;;;;;;11.85;10.60;;;-1.50;99.90;;;;;;4920256;28;90075;-28
2023/03/08 06:48:36;;;;;;;14.52;11.88;;;-1.50;99.90;;;;;;4921435;28;89902;-31
2023/03/08 06:51:03;;;;;;;11.70;10.55;;;-1.40;99.90;;;;;;4920652;28;88393;-32
2023/03/08 06:53:29;;;;;;;12.38;9.98;;;-1.40;99.90;;;;;;4929713;28;90104;-30
2023/03/08 06:55:55;;;;;;;12.07;10.02;;;-1.40;99.90;;;;;;4933666;28;89322;-32
2023/03/08 06:58:20;;;;;;;14.27;9.98;;;-1.40;99.90;;;;;;4943898;28;91204;-30
2023/03/08 07:00:46;;;;;;;11.88;9.80;;;-1.40;99.90;;;;;;4921596;28;88400;-28
2023/03/08 07:03:12;;;;;;;11.15;9.93;;;-1.30;99.90;;;;;;4921774;28;87573;-30
2023/03/08 07:05:38;;;;;;;21.67;11.73;;;-1.30;99.90;;;;;;4921500;28;90632;-29
2023/03/08 07:08:04;;;;;;;12.05;9.70;;;-1.30;99.90;;;;;;4920777;28;90211;-27
2023/03/08 07:10:30;;;;;;;10.73;9.55;;;-1.30;99.90;;;;;;4922419;28;87643;-29
2023/03/08 07:12:55;;;;;;;11.05;9.98;;;-1.20;99.90;;;;;;4922202;28;88997;-30
2023/03/08 07:15:22;;;;;;;10.05;9.05;;;-1.20;99.90;;;;;;4903323;28;90126;-29
2023/03/08 07:17:50;;;;;;;14.38;10.23;;;-1.20;99.90;;;;;;4920935;28;89917;-29
2023/03/08 07:20:18;;;;;;;12.85;8.90;;;-1.20;99.90;;;;;;4923462;28;87665;-28
2023/03/08 07:22:44;;;;;;;15.40;10.30;;;-1.10;99.90;;;;;;4920936;28;87935;-30
2023/03/08 07:25:11;;;;;;;16.02;10.88;;;-1.10;99.90;;;;;;4920871;28;89722;-31
2023/03/08 07:27:37;;;;;;;12.57;11.30;;;-1.10;99.90;;;;;;4920603;28;90316;-30
2023/03/08 07:30:03;;;;;;;16.52;10.05;;;-1.10;99.90;;;;;;4919958;28;87937;-29
2023/03/08 07:32:29;;;;;;;14.07;11.13;;;-1.10;99.90;;;;;;4921166;28;88398;-31
2023/03/08 07:34:55;;;;;;;12.15;10.93;;;-1.00;99.90;;;;;;4920346;28;90114;-29
2023/03/08 07:37:21;;;;;;;16.50;11.85;;;-1.00;99.90;;;;;;4928696;28;89874;-32
2023/03/08 07:39:46;;;;;;;18.95;13.27;;;-0.90;99.90;;;;;;4924263;28;89888;-32
2023/03/08 07:42:12;;;;;;;16.88;11.90;;;-0.90;99.90;;;;;;4936727;28;88522;-31
2023/03/08 07:44:37;;;;;;;15.27;12.52;;;-0.80;99.90;;;;;;4927535;28;90171;-28
2023/03/08 07:47:07;;;;;;;14.73;11.10;;;-0.80;99.90;;;;;;4919959;28;88691;-28
2023/03/08 07:49:33;;;;;;;15.80;12.18;;;-0.70;99.90;;;;;;4923005;28;87693;-30
2023/03/08 07:51:58;;;;;;;15.65;12.00;;;-0.60;99.90;;;;;;4911938;28;89078;-29
2023/03/08 07:54:24;;;;;;;15.90;13.52;;;-0.60;99.90;;;;;;4921176;28;90273;-30
2023/03/08 07:56:54;;;;;;;14.55;13.13;;;-0.50;99.90;;;;;;4935619;28;90327;-31
2023/03/08 07:59:22;;;;;;;14.38;12.77;;;-0.40;99.90;;;;;;4923623;28;88451;-30
2023/03/08 08:01:48;;;;;;;19.27;11.75;;;-0.40;99.90;;;;;;4926806;28;87691;-29
2023/03/08 08:04:13;;;;;;;12.98;11.55;;;-0.30;99.90;;;;;;4933130;28;91850;-31
2023/03/08 08:06:40;;;;;;;17.05;12.88;;;-0.30;99.90;;;;;;4936073;28;90349;-29
2023/03/08 08:09:07;;;;;;;14.52;13.02;;;-0.20;99.90;;;;;;4923755;28;90345;-29
2023/03/08 08:11:33;;;;;;;14.82;12.30;;;-0.20;99.90;;;;;;4923533;28;87807;-30
2023/03/08 08:14:00;;;;;;;13.95;12.63;;;-0.10;99.90;;;;;;4923777;28;90643;-28
2023/03/08 08:16:25;;;;;;;15.52;13.13;;;-0.10;99.90;;;;;;4927733;28;90380;-28
2023/03/08 08:18:51;;;;;;;20.45;14.27;;;0.00;99.90;;;;;;4921069;28;88695;-28
2023/03/08 08:21:17;;;;;;;16.80;14.95;;;0.00;99.90;;;;;;4921661;28;90378;-28
2023/03/08 08:23:43;;;;;;;18.88;15.20;;;0.10;99.90;;;;;;4922400;28;90678;-27
2023/03/08 08:26:17;;;;;;;19.30;16.17;;;0.10;99.90;;;;;;4924107;28;89173;-31
2023/03/08 08:28:44;;;;;;;17.63;14.88;;;0.10;99.90;;;;;;4924164;28;88446;-30
2023/03/08 08:31:13;;;;;;;20.90;14.90;;;0.20;99.90;;;;;;4920095;28;87800;-27
2023/03/08 08:33:39;;;;;;;17.85;14.13;;;0.20;99.90;;;;;;4920373;28;90251;-31
2023/03/08 08:36:07;;;;;;;16.38;14.23;;;0.30;99.90;;;;;;4920634;28;89514;-33
2023/03/08 08:38:33;;;;;;;17.80;14.25;;;0.40;99.90;;;;;;4927643;28;89502;-27
2023/03/08 08:41:00;;;;;;;19.85;14.90;;;0.50;99.90;;;;;;4920960;28;88434;-32
2023/03/08 08:43:27;;;;;;;19.55;14.85;;;0.50;99.90;;;;;;4929931;28;90327;-30
2023/03/08 08:45:55;;;;;;;21.90;15.77;;;0.50;99.90;;;;;;4933276;28;90851;-30
2023/03/08 08:48:21;;;;;;;19.48;16.10;;;0.60;99.90;;;;;;4904484;28;89986;-31
2023/03/08 08:50:46;;;;;;;22.83;17.60;;;0.50;99.90;;;;;;4920527;28;88829;-31
2023/03/08 08:53:12;;;;;;;27.70;18.73;;;0.50;99.90;;;;;;4920448;28;90831;-30
2023/03/08 08:55:37;;;;;;;25.33;18.63;;;0.50;99.90;;;;;;4920918;28;89274;-29
2023/03/08 08:58:04;;;;;;;23.15;17.38;;;0.50;99.90;;;;;;4926619;28;89687;-31
2023/03/08 09:00:32;;;;;;;25.65;19.42;;;0.50;99.90;;;;;;4921566;28;90189;-31
2023/03/08 09:02:58;;;;;;;23.02;17.85;;;0.50;99.90;;;;;;4920981;28;90411;-29
2023/03/08 09:05:24;;;;;;;27.40;19.33;;;0.50;99.90;;;;;;4920575;28;89677;-32
2023/03/08 09:07:52;;;;;;;25.95;16.50;;;0.40;99.90;;;;;;4921400;28;88421;-28
2023/03/08 09:10:18;;;;;;;28.60;19.35;;;0.50;99.90;;;;;;4933572;28;88593;-29
2023/03/08 09:12:44;;;;;;;22.10;16.50;;;0.50;99.90;;;;;;4931322;28;90204;-29
2023/03/08 09:15:10;;;;;;;29.08;18.88;;;0.40;99.90;;;;;;4923160;28;91154;-32
2023/03/08 09:17:37;;;;;;;22.85;19.17;;;0.40;99.90;;;;;;4921113;28;89622;-30
2023/03/08 09:20:05;;;;;;;29.65;21.95;;;0.30;99.90;;;;;;4919629;28;88198;-30
2023/03/08 09:22:31;;;;;;;30.17;20.83;;;0.30;99.90;;;;;;4920434;28;89888;-28
2023/03/08 09:24:57;;;;;;;31.58;20.50;;;0.40;99.90;;;;;;4919379;28;91016;-30
2023/03/08 09:27:22;;;;;;;26.15;18.75;;;0.30;99.90;;;;;;4919799;28;89356;-31
2023/03/08 09:29:48;;;;;;;30.10;18.33;;;0.40;99.90;;;;;;4920689;28;88689;-31
2023/03/08 09:32:14;;;;;;;36.92;20.45;;;0.40;99.90;;;;;;4920372;28;90133;-29
2023/03/08 09:34:40;;;;;;;31.10;20.15;;;0.40;99.90;;;;;;4920490;28;89565;-30
2023/03/08 09:37:07;;;;;;;22.67;16.23;;;0.40;99.90;;;;;;4926576;28;89667;-29
2023/03/08 09:39:33;;;;;;;22.35;16.65;;;0.30;99.90;;;;;;4926661;28;89830;-31
2023/03/08 09:42:01;;;;;;;25.13;16.15;;;0.40;99.90;;;;;;4920241;28;90167;-26
2023/03/08 09:44:42;;;;;;;22.35;15.60;;;0.30;99.90;;;;;;4920095;28;90169;-31
2023/03/08 09:47:19;;;;;;;30.30;17.27;;;0.40;99.90;;;;;;4920551;28;88040;-30
2023/03/08 09:49:49;;;;;;;24.83;17.90;;;0.50;99.90;;;;;;4920236;28;88738;-29
2023/03/08 09:52:28;;;;;;;32.63;17.40;;;0.50;99.90;;;;;;4919619;28;90298;-28
2023/03/08 09:54:55;;;;;;;39.13;20.45;;;0.50;99.90;;;;;;4920577;28;90396;-29
2023/03/08 09:57:29;;;;;;;32.80;18.88;;;0.50;99.90;;;;;;4932344;28;89155;-29
2023/03/08 09:59:57;;;;;;;30.50;15.68;;;0.50;99.90;;;;;;4920348;28;87608;-30
2023/03/08 10:02:42;;;;;;;20.17;14.65;;;0.60;99.90;;;;;;4920047;28;90218;-28
2023/03/08 10:05:32;;;;;;;25.95;13.25;;;0.60;99.90;;;;;;4918931;28;89586;-30
2023/03/08 10:08:18;;;;;;;24.55;14.75;;;0.60;99.90;;;;;;4919332;28;88936;-30
2023/03/08 10:11:06;;;;;;;20.50;13.65;;;0.70;99.90;;;;;;4912742;28;87590;-29
2023/03/08 10:13:38;;;;;;;20.33;13.60;;;0.80;99.90;;;;;;4919722;28;89297;-30
2023/03/08 10:16:30;;;;;;;19.73;13.13;;;0.70;99.90;;;;;;4919533;28;91184;-31
2023/03/08 10:19:18;;;;;;;28.88;17.02;;;0.80;99.90;;;;;;4919443;28;89146;-31
2023/03/08 10:21:44;;;;;;;21.40;14.43;;;0.70;99.90;;;;;;4920434;28;89877;-28
2023/03/08 10:24:28;;;;;;;31.95;19.02;;;0.80;99.90;;;;;;4919625;28;90196;-28
2023/03/08 10:27:01;;;;;;;23.15;15.23;;;0.90;99.90;;;;;;4919712;28;89997;-31
2023/03/08 10:29:27;;;;;;;18.02;13.93;;;0.80;99.90;;;;;;4918922;28;88676;-31
2023/03/08 10:31:53;;;;;;;23.50;14.15;;;0.80;99.90;;;;;;4914131;28;89237;-28
2023/03/08 10:34:27;;;;;;;20.05;13.68;;;0.90;99.90;;;;;;4921053;28;90802;-29
2023/03/08 10:37:01;;;;;;;24.48;13.98;;;0.90;99.90;;;;;;4924523;28;91486;-28
2023/03/08 10:39:27;;;;;;;21.20;13.88;;;0.80;99.90;;;;;;4927326;28;88897;-30
2023/03/08 10:41:56;;;;;;;28.13;17.08;;;0.70;99.90;;;;;;4918853;28;89769;-31
2023/03/08 10:44:32;;;;;;;23.70;15.98;;;0.80;99.90;;;;;;4919453;28;90430;-30
2023/03/08 10:46:58;;;;;;;24.88;13.38;;;0.90;99.90;;;;;;4919273;28;89182;-27
2023/03/08 10:49:24;;;;;;;22.48;13.68;;;0.90;99.90;;;;;;4918744;28;89406;-30
2023/03/08 10:51:52;;;;;;;21.48;12.07;;;0.80;99.90;;;;;;4919120;28;87770;-32
2023/03/08 10:54:18;;;;;;;22.08;13.30;;;0.90;99.90;;;;;;4918901;28;89535;-30
2023/03/08 10:56:52;;;;;;;25.00;13.32;;;0.80;99.90;;;;;;4931939;28;90055;-29
2023/03/08 10:59:31;;;;;;;20.40;13.50;;;1.00;99.90;;;;;;4919476;28;89843;-29
2023/03/08 11:02:00;;;;;;;24.05;14.82;;;1.10;99.90;;;;;;4918956;28;88519;-31
2023/03/08 11:04:28;;;;;;;23.85;13.20;;;1.10;99.90;;;;;;4919416;28;90270;-27
2023/03/08 11:06:54;;;;;;;22.70;13.48;;;1.20;99.90;;;;;;4919495;28;89106;-29
2023/03/08 11:09:29;;;;;;;30.02;16.20;;;1.10;99.90;;;;;;4919235;28;89866;-31
2023/03/08 11:11:56;;;;;;;20.02;15.05;;;1.10;99.90;;;;;;4919335;28;89594;-29
2023/03/08 11:14:23;;;;;;;19.73;15.52;;;1.20;99.90;;;;;;4918031;28;90493;-29
2023/03/08 11:17:12;;;;;;;22.45;14.30;;;1.30;99.90;;;;;;4918410;28;89968;-29
2023/03/08 11:19:40;;;;;;;;;;;1.30;99.90;;;;;;4918866;28;89088;-30
2023/03/08 11:22:12;;;;;;;;;;;1.40;99.90;;;;;;4921441;28;88287;-28
2023/03/08 11:25:08;;;;;;;25.95;15.27;;;1.50;99.90;;;;;;4920997;28;89792;-29
2023/03/08 11:27:47;;;;;;;22.45;13.88;;;1.60;99.90;;;;;;4918330;28;89050;-28
2023/03/08 11:30:36;;;;;;;27.10;15.63;;;1.60;99.90;;;;;;4900297;28;87625;-30
2023/03/08 11:33:28;;;;;;;25.23;15.75;;;1.70;99.90;;;;;;4919685;28;89658;-29
2023/03/08 11:36:35;;;;;;;26.23;16.88;;;1.60;99.90;;;;;;4919853;28;90111;-30
2023/03/08 11:39:25;;;;;;;16.25;11.85;;;1.60;99.90;;;;;;4898762;28;90382;-29
2023/03/08 11:41:54;;;;;;;29.40;17.27;;;1.60;99.90;;;;;;4919592;28;88869;-31
2023/03/08 11:44:37;;;;;;;27.48;16.20;;;1.60;99.90;;;;;;4919330;28;88968;-29
2023/03/08 11:47:37;;;;;;;20.08;13.55;;;1.60;99.90;;;;;;4980212;22;90178;-30
2023/03/08 11:50:21;;;;;;;25.00;14.95;;;1.70;99.90;;;;;;4958667;28;91276;-31
2023/03/08 11:53:22;;;;;;;26.95;15.18;;;1.70;99.90;;;;;;4960037;28;88999;-29
2023/03/08 11:56:30;;;;;;;24.90;16.55;;;1.80;99.90;;;;;;4964927;28;87954;-29
2023/03/08 11:59:20;;;;;;;23.33;16.58;;;1.80;99.90;;;;;;4964937;28;89937;-30
2023/03/08 12:02:06;;;;;;;20.77;15.90;;;1.80;99.90;;;;;;4964842;28;90060;-28
2023/03/08 12:04:57;;;;;;;25.30;16.95;;;1.80;99.90;;;;;;4970648;28;89175;-27
2023/03/08 12:07:47;;;;;;;26.10;16.00;;;1.80;99.90;;;;;;4967508;28;89581;-28
2023/03/08 12:10:20;;;;;;;27.73;16.52;;;1.90;99.90;;;;;;4965446;28;89952;-30
2023/03/08 12:12:54;;;;;;;32.88;16.52;;;2.00;99.90;;;;;;4964083;28;89749;-27
2023/03/08 12:15:33;;;;;;;36.40;21.27;;;1.90;99.90;;;;;;4969385;28;89982;-28
2023/03/08 12:18:25;;;;;;;32.40;20.40;;;2.00;99.90;;;;;;4962543;28;88534;-28
2023/03/08 12:20:59;;;;;;;36.15;21.00;;;2.00;99.90;;;;;;4961316;28;89830;-28
2023/03/08 12:23:37;;;;;;;26.27;18.48;;;2.10;99.90;;;;;;4969090;28;89624;-29
2023/03/08 12:26:16;;;;;;;31.08;18.45;;;2.10;99.90;;;;;;4961855;28;89372;-28
2023/03/08 12:28:52;;;;;;;26.92;18.02;;;2.10;99.90;;;;;;4964965;28;87581;-30
2023/03/08 12:31:18;;;;;;;27.13;19.40;;;2.20;99.90;;;;;;4961783;28;89381;-27
2023/03/08 12:33:46;;;;;;;29.55;18.67;;;2.30;99.90;;;;;;4961587;28;89298;-31
2023/03/08 12:36:12;;;;;;;27.43;15.47;;;2.30;99.90;;;;;;4961617;28;87547;-29
2023/03/08 12:38:41;;;;;;;28.67;15.88;;;2.30;99.90;;;;;;4956295;28;88361;-29
2023/03/08 12:41:20;;;;;;;33.33;19.25;;;2.30;99.90;;;;;;4956566;28;89939;-29
2023/03/08 12:43:48;;;;;;;25.63;16.90;;;2.30;99.90;;;;;;4964070;28;89633;-29
2023/03/08 12:46:14;;;;;;;24.60;16.85;;;2.40;99.90;;;;;;4977800;28;88880;-30